Port Dickinson, New York
Current Conditions -  °F | °C
As of 8:53 PM on Wednesday 22 Oct 2014 (Local Time) from KBGM Reporting Station
Overcast Overcast  
Wind Chill: 38°   Ceiling: 700
Heat Index: 45°   Visibility: 10mi
Dew Point: 42°   Wind: 16mph
Humidity: 90%   Direction: 360°N
Pressure: 30.03"   Gusts: NA
Location:  42.1934°N, 75.8849°W
Report Text: KBGM 230053Z 36014KT 10SM OVC007 07/06 A3003 RMK AO2 RAE36 SLP175 P0001 T00720056
Loading
Personal Weather Stations






























Interactive Weather Map
Tropical Storm Tracking
New forecast layout! Learn more

10-Day Weather Forecast

Advertisements
Track Severe Weather on mobile